sensor_id;sensor_type;location;lat;lon;timestamp;temperature;humidity
40123;DHT22;25832;45.490;4.912;2023-03-03T00:02:18;0.40;99.90
40123;DHT22;25832;45.490;4.912;2023-03-03T00:04:43;0.40;99.90
40123;DHT22;25832;45.490;4.912;2023-03-03T00:07:10;0.50;99.90
40123;DHT22;25832;45.490;4.912;2023-03-03T00:09:36;0.50;99.90
40123;DHT22;25832;45.490;4.912;2023-03-03T00:12:23;0.50;99.90
40123;DHT22;25832;45.490;4.912;2023-03-03T00:14:49;0.60;99.90
40123;DHT22;25832;45.490;4.912;2023-03-03T00:17:23;0.60;99.90
40123;DHT22;25832;45.490;4.912;2023-03-03T00:19:50;0.70;99.90
40123;DHT22;25832;45.490;4.912;2023-03-03T00:24:51;0.60;99.90
40123;DHT22;25832;45.490;4.912;2023-03-03T00:27:26;0.50;99.90
40123;DHT22;25832;45.490;4.912;2023-03-03T00:29:57;0.40;99.90
40123;DHT22;25832;45.490;4.912;2023-03-03T00:32:26;0.40;99.90
40123;DHT22;25832;45.490;4.912;2023-03-03T00:34:54;0.30;99.90
40123;DHT22;25832;45.490;4.912;2023-03-03T00:37:27;0.30;99.90
40123;DHT22;25832;45.490;4.912;2023-03-03T00:42:45;0.20;99.90
40123;DHT22;25832;45.490;4.912;2023-03-03T00:45:26;0.30;99.90
40123;DHT22;25832;45.490;4.912;2023-03-03T00:47:52;0.40;99.90
40123;DHT22;25832;45.490;4.912;2023-03-03T00:50:33;0.50;99.90
40123;DHT22;25832;45.490;4.912;2023-03-03T00:53:06;0.70;99.90
40123;DHT22;25832;45.490;4.912;2023-03-03T00:55:33;0.80;99.90
40123;DHT22;25832;45.490;4.912;2023-03-03T00:57:59;0.90;99.90
40123;DHT22;25832;45.490;4.912;2023-03-03T01:00:25;1.00;99.90
40123;DHT22;25832;45.490;4.912;2023-03-03T01:02:50;0.90;99.90
40123;DHT22;25832;45.490;4.912;2023-03-03T01:05:17;0.90;99.90
40123;DHT22;25832;45.490;4.912;2023-03-03T01:07:43;0.80;99.90
40123;DHT22;25832;45.490;4.912;2023-03-03T01:10:10;0.70;99.90
40123;DHT22;25832;45.490;4.912;2023-03-03T01:12:36;0.60;99.90
40123;DHT22;25832;45.490;4.912;2023-03-03T01:15:07;0.60;99.90
40123;DHT22;25832;45.490;4.912;2023-03-03T01:17:33;0.50;99.90
40123;DHT22;25832;45.490;4.912;2023-03-03T01:20:00;0.50;99.90
40123;DHT22;25832;45.490;4.912;2023-03-03T01:22:25;0.60;99.90
40123;DHT22;25832;45.490;4.912;2023-03-03T01:24:51;0.80;99.90
40123;DHT22;25832;45.490;4.912;2023-03-03T01:27:17;1.00;99.90
40123;DHT22;25832;45.490;4.912;2023-03-03T01:29:42;1.20;99.90
40123;DHT22;25832;45.490;4.912;2023-03-03T01:32:08;1.40;99.90
40123;DHT22;25832;45.490;4.912;2023-03-03T01:34:33;1.50;99.90
40123;DHT22;25832;45.490;4.912;2023-03-03T01:36:59;1.60;99.90
40123;DHT22;25832;45.490;4.912;2023-03-03T01:39:25;1.70;99.90
40123;DHT22;25832;45.490;4.912;2023-03-03T01:41:51;1.70;99.90
40123;DHT22;25832;45.490;4.912;2023-03-03T01:44:17;1.70;99.90
40123;DHT22;25832;45.490;4.912;2023-03-03T01:46:53;1.60;99.90
40123;DHT22;25832;45.490;4.912;2023-03-03T01:49:29;1.60;99.90
40123;DHT22;25832;45.490;4.912;2023-03-03T01:51:59;1.60;99.90
40123;DHT22;25832;45.490;4.912;2023-03-03T01:54:33;1.50;99.90
40123;DHT22;25832;45.490;4.912;2023-03-03T01:57:05;1.40;99.90
40123;DHT22;25832;45.490;4.912;2023-03-03T01:59:36;1.30;99.90
40123;DHT22;25832;45.490;4.912;2023-03-03T02:02:06;1.30;99.90
40123;DHT22;25832;45.490;4.912;2023-03-03T02:04:34;1.20;99.90
40123;DHT22;25832;45.490;4.912;2023-03-03T02:07:04;1.20;99.90
40123;DHT22;25832;45.490;4.912;2023-03-03T02:09:49;1.00;99.90
40123;DHT22;25832;45.490;4.912;2023-03-03T02:12:18;0.90;99.90
40123;DHT22;25832;45.490;4.912;2023-03-03T02:14:44;0.70;99.90
40123;DHT22;25832;45.490;4.912;2023-03-03T02:17:10;0.60;99.90
40123;DHT22;25832;45.490;4.912;2023-03-03T02:20:06;0.50;99.90
40123;DHT22;25832;45.490;4.912;2023-03-03T02:22:46;0.30;99.90
40123;DHT22;25832;45.490;4.912;2023-03-03T02:25:24;0.20;99.90
40123;DHT22;25832;45.490;4.912;2023-03-03T02:27:51;0.10;99.90
40123;DHT22;25832;45.490;4.912;2023-03-03T02:30:20;0.00;99.90
40123;DHT22;25832;45.490;4.912;2023-03-03T02:32:46;-0.10;99.90
40123;DHT22;25832;45.490;4.912;2023-03-03T02:35:34;-0.10;99.90
40123;DHT22;25832;45.490;4.912;2023-03-03T02:40:52;-0.30;99.90
40123;DHT22;25832;45.490;4.912;2023-03-03T02:43:21;-0.30;99.90
40123;DHT22;25832;45.490;4.912;2023-03-03T02:45:47;-0.30;99.90
40123;DHT22;25832;45.490;4.912;2023-03-03T02:48:13;-0.30;99.90
40123;DHT22;25832;45.490;4.912;2023-03-03T02:50:39;-0.20;99.90
40123;DHT22;25832;45.490;4.912;2023-03-03T02:53:04;-0.20;99.90
40123;DHT22;25832;45.490;4.912;2023-03-03T02:55:30;-0.20;99.90
40123;DHT22;25832;45.490;4.912;2023-03-03T02:57:56;-0.30;99.90
40123;DHT22;25832;45.490;4.912;2023-03-03T03:00:22;-0.40;99.90
40123;DHT22;25832;45.490;4.912;2023-03-03T03:02:47;-0.50;99.90
40123;DHT22;25832;45.490;4.912;2023-03-03T03:05:13;-0.60;99.90
40123;DHT22;25832;45.490;4.912;2023-03-03T03:07:39;-0.70;99.90
40123;DHT22;25832;45.490;4.912;2023-03-03T03:10:04;-0.80;99.90
40123;DHT22;25832;45.490;4.912;2023-03-03T03:12:30;-0.80;99.90
40123;DHT22;25832;45.490;4.912;2023-03-03T03:14:57;-0.90;99.90
40123;DHT22;25832;45.490;4.912;2023-03-03T03:17:22;-0.90;99.90
40123;DHT22;25832;45.490;4.912;2023-03-03T03:19:48;-1.00;99.90
40123;DHT22;25832;45.490;4.912;2023-03-03T03:22:14;-1.00;99.90
40123;DHT22;25832;45.490;4.912;2023-03-03T03:24:39;-1.10;99.90
40123;DHT22;25832;45.490;4.912;2023-03-03T03:27:05;-1.20;99.90
40123;DHT22;25832;45.490;4.912;2023-03-03T03:29:31;-1.30;99.90
40123;DHT22;25832;45.490;4.912;2023-03-03T03:31:56;-1.30;99.90
40123;DHT22;25832;45.490;4.912;2023-03-03T03:34:22;-1.40;99.90
40123;DHT22;25832;45.490;4.912;2023-03-03T03:36:48;-1.50;99.90
40123;DHT22;25832;45.490;4.912;2023-03-03T03:39:13;-1.50;99.90
40123;DHT22;25832;45.490;4.912;2023-03-03T03:41:39;-1.50;99.90
40123;DHT22;25832;45.490;4.912;2023-03-03T03:44:05;-1.50;99.90
40123;DHT22;25832;45.490;4.912;2023-03-03T03:46:31;-1.50;99.90
40123;DHT22;25832;45.490;4.912;2023-03-03T03:48:56;-1.50;99.90
40123;DHT22;25832;45.490;4.912;2023-03-03T03:51:22;-1.50;99.90
40123;DHT22;25832;45.490;4.912;2023-03-03T03:53:48;-1.50;99.90
40123;DHT22;25832;45.490;4.912;2023-03-03T03:56:13;-1.60;99.90
40123;DHT22;25832;45.490;4.912;2023-03-03T03:58:40;-1.50;99.90
40123;DHT22;25832;45.490;4.912;2023-03-03T04:01:08;-1.60;99.90
40123;DHT22;25832;45.490;4.912;2023-03-03T04:03:34;-1.60;99.90
40123;DHT22;25832;45.490;4.912;2023-03-03T04:06:00;-1.50;99.90
40123;DHT22;25832;45.490;4.912;2023-03-03T04:08:25;-1.60;99.90
40123;DHT22;25832;45.490;4.912;2023-03-03T04:10:51;-1.60;99.90
40123;DHT22;25832;45.490;4.912;2023-03-03T04:13:17;-1.60;99.90
40123;DHT22;25832;45.490;4.912;2023-03-03T04:15:42;-1.60;99.90
40123;DHT22;25832;45.490;4.912;2023-03-03T04:18:08;-1.60;99.90
40123;DHT22;25832;45.490;4.912;2023-03-03T04:20:34;-1.60;99.90
40123;DHT22;25832;45.490;4.912;2023-03-03T04:22:59;-1.60;99.90
40123;DHT22;25832;45.490;4.912;2023-03-03T04:25:25;-1.60;99.90
40123;DHT22;25832;45.490;4.912;2023-03-03T04:27:51;-1.70;99.90
40123;DHT22;25832;45.490;4.912;2023-03-03T04:30:17;-1.60;99.90
40123;DHT22;25832;45.490;4.912;2023-03-03T04:32:43;-1.60;99.90
40123;DHT22;25832;45.490;4.912;2023-03-03T04:35:09;-1.60;99.90
40123;DHT22;25832;45.490;4.912;2023-03-03T04:37:36;-1.60;99.90
40123;DHT22;25832;45.490;4.912;2023-03-03T04:40:06;-1.60;99.90
40123;DHT22;25832;45.490;4.912;2023-03-03T04:42:32;-1.60;99.90
40123;DHT22;25832;45.490;4.912;2023-03-03T04:44:58;-1.60;99.90
40123;DHT22;25832;45.490;4.912;2023-03-03T04:47:23;-1.60;99.90
40123;DHT22;25832;45.490;4.912;2023-03-03T04:49:49;-1.60;99.90
40123;DHT22;25832;45.490;4.912;2023-03-03T04:52:15;-1.60;99.90
40123;DHT22;25832;45.490;4.912;2023-03-03T04:54:41;-1.60;99.90
40123;DHT22;25832;45.490;4.912;2023-03-03T04:57:06;-1.60;99.90
40123;DHT22;25832;45.490;4.912;2023-03-03T04:59:34;-1.60;99.90
40123;DHT22;25832;45.490;4.912;2023-03-03T05:02:00;-1.50;99.90
40123;DHT22;25832;45.490;4.912;2023-03-03T05:04:25;-1.50;99.90
40123;DHT22;25832;45.490;4.912;2023-03-03T05:06:51;-1.50;99.90
40123;DHT22;25832;45.490;4.912;2023-03-03T05:09:17;-1.50;99.90
40123;DHT22;25832;45.490;4.912;2023-03-03T05:11:42;-1.50;99.90
40123;DHT22;25832;45.490;4.912;2023-03-03T05:14:08;-1.50;99.90
40123;DHT22;25832;45.490;4.912;2023-03-03T05:16:33;-1.50;99.90
40123;DHT22;25832;45.490;4.912;2023-03-03T05:18:59;-1.50;99.90
40123;DHT22;25832;45.490;4.912;2023-03-03T05:21:25;-1.40;99.90
40123;DHT22;25832;45.490;4.912;2023-03-03T05:23:50;-1.50;99.90
40123;DHT22;25832;45.490;4.912;2023-03-03T05:26:17;-1.50;99.90
40123;DHT22;25832;45.490;4.912;2023-03-03T05:28:42;-1.60;99.90
40123;DHT22;25832;45.490;4.912;2023-03-03T05:31:08;-1.60;99.90
40123;DHT22;25832;45.490;4.912;2023-03-03T05:33:34;-1.70;99.90
40123;DHT22;25832;45.490;4.912;2023-03-03T05:36:00;-1.70;99.90
40123;DHT22;25832;45.490;4.912;2023-03-03T05:38:26;-1.80;99.90
40123;DHT22;25832;45.490;4.912;2023-03-03T05:40:52;-1.80;99.90
40123;DHT22;25832;45.490;4.912;2023-03-03T05:43:19;-1.90;99.90
40123;DHT22;25832;45.490;4.912;2023-03-03T05:45:44;-1.90;99.90
40123;DHT22;25832;45.490;4.912;2023-03-03T05:48:10;-1.90;99.90
40123;DHT22;25832;45.490;4.912;2023-03-03T05:50:37;-2.00;99.90
40123;DHT22;25832;45.490;4.912;2023-03-03T05:53:03;-2.00;99.90
40123;DHT22;25832;45.490;4.912;2023-03-03T05:55:28;-2.00;99.90
40123;DHT22;25832;45.490;4.912;2023-03-03T05:57:54;-2.10;99.90
40123;DHT22;25832;45.490;4.912;2023-03-03T06:00:20;-2.10;99.90
40123;DHT22;25832;45.490;4.912;2023-03-03T06:02:46;-2.10;99.90
40123;DHT22;25832;45.490;4.912;2023-03-03T06:05:12;-2.00;99.90
40123;DHT22;25832;45.490;4.912;2023-03-03T06:07:38;-2.10;99.90
40123;DHT22;25832;45.490;4.912;2023-03-03T06:10:04;-2.10;99.90
40123;DHT22;25832;45.490;4.912;2023-03-03T06:12:30;-2.00;99.90
40123;DHT22;25832;45.490;4.912;2023-03-03T06:14:55;-2.00;99.90
40123;DHT22;25832;45.490;4.912;2023-03-03T06:17:21;-2.00;99.90
40123;DHT22;25832;45.490;4.912;2023-03-03T06:19:46;-2.00;99.90
40123;DHT22;25832;45.490;4.912;2023-03-03T06:22:13;-2.10;99.90
40123;DHT22;25832;45.490;4.912;2023-03-03T06:24:38;-2.10;99.90
40123;DHT22;25832;45.490;4.912;2023-03-03T06:27:04;-2.10;99.90
40123;DHT22;25832;45.490;4.912;2023-03-03T06:29:30;-2.00;99.90
40123;DHT22;25832;45.490;4.912;2023-03-03T06:31:55;-2.00;99.90
40123;DHT22;25832;45.490;4.912;2023-03-03T06:34:21;-2.00;99.90
40123;DHT22;25832;45.490;4.912;2023-03-03T06:36:47;-2.00;99.90
40123;DHT22;25832;45.490;4.912;2023-03-03T06:39:13;-2.00;99.90
40123;DHT22;25832;45.490;4.912;2023-03-03T06:41:38;-1.90;99.90
40123;DHT22;25832;45.490;4.912;2023-03-03T06:44:04;-1.90;99.90
40123;DHT22;25832;45.490;4.912;2023-03-03T06:46:30;-1.80;99.90
40123;DHT22;25832;45.490;4.912;2023-03-03T06:48:55;-1.80;99.90
40123;DHT22;25832;45.490;4.912;2023-03-03T06:51:32;-1.70;99.90
40123;DHT22;25832;45.490;4.912;2023-03-03T06:54:02;-1.60;99.90
40123;DHT22;25832;45.490;4.912;2023-03-03T06:56:34;-1.50;99.90
40123;DHT22;25832;45.490;4.912;2023-03-03T06:59:00;-1.40;99.90
40123;DHT22;25832;45.490;4.912;2023-03-03T07:01:34;-1.30;99.90
40123;DHT22;25832;45.490;4.912;2023-03-03T07:04:00;-1.20;99.90
40123;DHT22;25832;45.490;4.912;2023-03-03T07:06:26;-1.00;99.90
40123;DHT22;25832;45.490;4.912;2023-03-03T07:08:53;-0.90;99.90
40123;DHT22;25832;45.490;4.912;2023-03-03T07:11:22;-0.80;99.90
40123;DHT22;25832;45.490;4.912;2023-03-03T07:13:54;-0.80;99.90
40123;DHT22;25832;45.490;4.912;2023-03-03T07:16:26;-0.70;99.90
40123;DHT22;25832;45.490;4.912;2023-03-03T07:18:56;-0.60;99.90
40123;DHT22;25832;45.490;4.912;2023-03-03T07:21:36;-0.40;99.90
40123;DHT22;25832;45.490;4.912;2023-03-03T07:24:29;-0.20;99.90
40123;DHT22;25832;45.490;4.912;2023-03-03T07:29:46;0.00;99.90
40123;DHT22;25832;45.490;4.912;2023-03-03T07:32:41;0.20;99.90
40123;DHT22;25832;45.490;4.912;2023-03-03T07:35:40;0.40;99.90
40123;DHT22;25832;45.490;4.912;2023-03-03T07:41:00;1.00;99.90
40123;DHT22;25832;45.490;4.912;2023-03-03T07:43:37;1.20;99.90
40123;DHT22;25832;45.490;4.912;2023-03-03T07:46:19;1.40;99.90
40123;DHT22;25832;45.490;4.912;2023-03-03T07:48:47;1.60;99.90
40123;DHT22;25832;45.490;4.912;2023-03-03T07:54:16;1.90;99.90
40123;DHT22;25832;45.490;4.912;2023-03-03T07:56:39;2.10;99.90
40123;DHT22;25832;45.490;4.912;2023-03-03T07:59:28;2.20;99.90
40123;DHT22;25832;45.490;4.912;2023-03-03T08:01:56;2.40;99.90
40123;DHT22;25832;45.490;4.912;2023-03-03T08:04:40;2.60;99.90
40123;DHT22;25832;45.490;4.912;2023-03-03T08:07:13;2.60;99.90
40123;DHT22;25832;45.490;4.912;2023-03-03T08:10:00;2.70;99.90
40123;DHT22;25832;45.490;4.912;2023-03-03T08:12:41;2.80;99.90
40123;DHT22;25832;45.490;4.912;2023-03-03T08:17:41;3.10;99.90
40123;DHT22;25832;45.490;4.912;2023-03-03T08:22:56;3.30;99.90
40123;DHT22;25832;45.490;4.912;2023-03-03T08:25:22;3.40;99.90
40123;DHT22;25832;45.490;4.912;2023-03-03T08:27:48;3.50;99.90
40123;DHT22;25832;45.490;4.912;2023-03-03T08:30:13;3.60;99.90
40123;DHT22;25832;45.490;4.912;2023-03-03T08:32:39;3.70;99.90
40123;DHT22;25832;45.490;4.912;2023-03-03T08:35:05;3.80;99.90
40123;DHT22;25832;45.490;4.912;2023-03-03T08:37:31;3.90;99.90
40123;DHT22;25832;45.490;4.912;2023-03-03T08:39:56;4.00;99.90
40123;DHT22;25832;45.490;4.912;2023-03-03T08:42:23;3.90;99.90
40123;DHT22;25832;45.490;4.912;2023-03-03T08:44:48;4.00;99.90
40123;DHT22;25832;45.490;4.912;2023-03-03T08:47:14;4.10;99.90
40123;DHT22;25832;45.490;4.912;2023-03-03T08:49:39;4.10;99.90
40123;DHT22;25832;45.490;4.912;2023-03-03T08:52:05;4.10;99.90
40123;DHT22;25832;45.490;4.912;2023-03-03T08:54:31;4.00;99.90
40123;DHT22;25832;45.490;4.912;2023-03-03T08:56:57;4.10;99.90
40123;DHT22;25832;45.490;4.912;2023-03-03T08:59:22;4.10;99.90
40123;DHT22;25832;45.490;4.912;2023-03-03T09:01:48;4.20;99.90
40123;DHT22;25832;45.490;4.912;2023-03-03T09:04:14;4.30;99.90
40123;DHT22;25832;45.490;4.912;2023-03-03T09:06:39;4.30;99.90
40123;DHT22;25832;45.490;4.912;2023-03-03T09:09:05;4.40;99.90
40123;DHT22;25832;45.490;4.912;2023-03-03T09:11:32;4.50;99.90
40123;DHT22;25832;45.490;4.912;2023-03-03T09:14:11;4.60;99.90
40123;DHT22;25832;45.490;4.912;2023-03-03T09:16:39;4.80;99.90
40123;DHT22;25832;45.490;4.912;2023-03-03T09:19:31;4.80;99.90
40123;DHT22;25832;45.490;4.912;2023-03-03T09:22:23;4.80;99.90
40123;DHT22;25832;45.490;4.912;2023-03-03T09:24:52;4.90;99.90
40123;DHT22;25832;45.490;4.912;2023-03-03T09:27:34;4.90;99.90
40123;DHT22;25832;45.490;4.912;2023-03-03T09:32:47;4.80;99.90
40123;DHT22;25832;45.490;4.912;2023-03-03T09:35:35;4.70;99.90
40123;DHT22;25832;45.490;4.912;2023-03-03T09:43:35;4.80;99.90
40123;DHT22;25832;45.490;4.912;2023-03-03T09:49:06;5.10;99.90
40123;DHT22;25832;45.490;4.912;2023-03-03T09:54:16;5.30;99.90
40123;DHT22;25832;45.490;4.912;2023-03-03T10:02:49;5.10;99.90
40123;DHT22;25832;45.490;4.912;2023-03-03T10:05:20;5.10;99.90
40123;DHT22;25832;45.490;4.912;2023-03-03T10:10:42;5.10;99.90
40123;DHT22;25832;45.490;4.912;2023-03-03T10:13:40;5.10;99.90
40123;DHT22;25832;45.490;4.912;2023-03-03T10:19:19;5.30;99.90
40123;DHT22;25832;45.490;4.912;2023-03-03T10:27:39;6.10;99.90
40123;DHT22;25832;45.490;4.912;2023-03-03T10:33:36;6.30;99.90
40123;DHT22;25832;45.490;4.912;2023-03-03T10:36:28;6.60;99.90
40123;DHT22;25832;45.490;4.912;2023-03-03T10:44:55;7.50;99.90
40123;DHT22;25832;45.490;4.912;2023-03-03T10:47:29;7.60;99.00
40123;DHT22;25832;45.490;4.912;2023-03-03T10:50:04;7.70;98.80
40123;DHT22;25832;45.490;4.912;2023-03-03T11:01:17;7.60;97.70
40123;DHT22;25832;45.490;4.912;2023-03-03T11:06:39;7.60;97.50
40123;DHT22;25832;45.490;4.912;2023-03-03T11:24:01;7.30;96.70
40123;DHT22;25832;45.490;4.912;2023-03-03T11:26:49;7.30;97.40
40123;DHT22;25832;45.490;4.912;2023-03-03T11:29:32;7.40;97.90
40123;DHT22;25832;45.490;4.912;2023-03-03T11:32:02;7.40;96.90
40123;DHT22;25832;45.490;4.912;2023-03-03T11:37:38;7.60;96.90
40123;DHT22;25832;45.490;4.912;2023-03-03T11:40:19;7.50;97.20
40123;DHT22;25832;45.490;4.912;2023-03-03T11:45:21;7.30;96.90
40123;DHT22;25832;45.490;4.912;2023-03-03T11:48:06;7.40;97.60
40123;DHT22;25832;45.490;4.912;2023-03-03T11:50:54;7.30;97.00
40123;DHT22;25832;45.490;4.912;2023-03-03T12:01:45;7.30;97.70
40123;DHT22;25832;45.490;4.912;2023-03-03T12:04:12;7.40;96.90
40123;DHT22;25832;45.490;4.912;2023-03-03T12:07:16;7.30;96.90
40123;DHT22;25832;45.490;4.912;2023-03-03T12:12:23;7.30;96.30
40123;DHT22;25832;45.490;4.912;2023-03-03T12:22:54;7.50;96.20
40123;DHT22;25832;45.490;4.912;2023-03-03T12:25:34;7.50;95.50
40123;DHT22;25832;45.490;4.912;2023-03-03T12:28:29;7.40;95.70
40123;DHT22;25832;45.490;4.912;2023-03-03T12:33:58;7.50;96.00
40123;DHT22;25832;45.490;4.912;2023-03-03T12:41:52;7.60;95.90
40123;DHT22;25832;45.490;4.912;2023-03-03T12:44:38;7.60;95.50
40123;DHT22;25832;45.490;4.912;2023-03-03T12:52:32;7.80;96.40
40123;DHT22;25832;45.490;4.912;2023-03-03T12:55:23;7.80;96.80
40123;DHT22;25832;45.490;4.912;2023-03-03T12:58:11;7.70;95.80
40123;DHT22;25832;45.490;4.912;2023-03-03T13:01:28;7.70;95.60
40123;DHT22;25832;45.490;4.912;2023-03-03T13:03:51;7.80;95.20
40123;DHT22;25832;45.490;4.912;2023-03-03T13:20:02;7.80;95.40
40123;DHT22;25832;45.490;4.912;2023-03-03T13:25:29;7.80;96.50
40123;DHT22;25832;45.490;4.912;2023-03-03T13:28:11;7.80;96.40
40123;DHT22;25832;45.490;4.912;2023-03-03T13:30:42;7.90;96.10
40123;DHT22;25832;45.490;4.912;2023-03-03T13:33:38;7.90;96.10
40123;DHT22;25832;45.490;4.912;2023-03-03T13:36:09;8.00;96.00
40123;DHT22;25832;45.490;4.912;2023-03-03T13:38:47;8.00;96.00
40123;DHT22;25832;45.490;4.912;2023-03-03T13:44:03;8.00;95.20
40123;DHT22;25832;45.490;4.912;2023-03-03T13:46:40;8.00;95.40
40123;DHT22;25832;45.490;4.912;2023-03-03T13:51:52;8.00;94.60
40123;DHT22;25832;45.490;4.912;2023-03-03T14:08:05;7.90;95.70
40123;DHT22;25832;45.490;4.912;2023-03-03T14:10:48;7.90;95.90
40123;DHT22;25832;45.490;4.912;2023-03-03T14:13:22;7.90;96.20
40123;DHT22;25832;45.490;4.912;2023-03-03T14:16:31;8.00;96.20
40123;DHT22;25832;45.490;4.912;2023-03-03T14:18:57;8.10;95.90
40123;DHT22;25832;45.490;4.912;2023-03-03T14:21:34;8.00;95.50
40123;DHT22;25832;45.490;4.912;2023-03-03T14:26:52;8.10;95.50
40123;DHT22;25832;45.490;4.912;2023-03-03T14:32:20;7.90;95.20
40123;DHT22;25832;45.490;4.912;2023-03-03T14:34:58;7.90;95.50
40123;DHT22;25832;45.490;4.912;2023-03-03T14:37:42;7.90;95.50
40123;DHT22;25832;45.490;4.912;2023-03-03T14:40:19;8.00;95.50
40123;DHT22;25832;45.490;4.912;2023-03-03T14:42:48;8.20;94.50
40123;DHT22;25832;45.490;4.912;2023-03-03T14:47:48;8.20;95.00
40123;DHT22;25832;45.490;4.912;2023-03-03T14:50:53;8.20;94.80
40123;DHT22;25832;45.490;4.912;2023-03-03T14:56:20;8.40;95.20
40123;DHT22;25832;45.490;4.912;2023-03-03T14:58:47;8.40;95.20
40123;DHT22;25832;45.490;4.912;2023-03-03T15:01:20;8.30;94.40
40123;DHT22;25832;45.490;4.912;2023-03-03T15:06:42;8.20;95.40
40123;DHT22;25832;45.490;4.912;2023-03-03T15:09:33;8.20;95.10
40123;DHT22;25832;45.490;4.912;2023-03-03T15:12:02;8.30;95.50
40123;DHT22;25832;45.490;4.912;2023-03-03T15:14:37;8.40;95.20
40123;DHT22;25832;45.490;4.912;2023-03-03T15:22:44;8.20;96.50
40123;DHT22;25832;45.490;4.912;2023-03-03T15:25:14;8.30;95.00
40123;DHT22;25832;45.490;4.912;2023-03-03T15:39:18;8.20;95.50
40123;DHT22;25832;45.490;4.912;2023-03-03T15:41:57;8.10;95.50
40123;DHT22;25832;45.490;4.912;2023-03-03T15:44:51;8.00;96.70
40123;DHT22;25832;45.490;4.912;2023-03-03T15:55:43;7.70;97.00
40123;DHT22;25832;45.490;4.912;2023-03-03T16:01:19;7.60;96.20
40123;DHT22;25832;45.490;4.912;2023-03-03T16:04:08;7.60;96.70
40123;DHT22;25832;45.490;4.912;2023-03-03T16:07:04;7.50;97.00
40123;DHT22;25832;45.490;4.912;2023-03-03T16:12:59;7.40;97.40
40123;DHT22;25832;45.490;4.912;2023-03-03T16:31:13;7.00;98.00
40123;DHT22;25832;45.490;4.912;2023-03-03T16:39:33;6.90;98.00
40123;DHT22;25832;45.490;4.912;2023-03-03T16:42:27;6.90;98.30
40123;DHT22;25832;45.490;4.912;2023-03-03T16:48:13;6.70;98.20
40123;DHT22;25832;45.490;4.912;2023-03-03T16:50:54;6.60;98.20
40123;DHT22;25832;45.490;4.912;2023-03-03T16:56:42;6.50;98.90
40123;DHT22;25832;45.490;4.912;2023-03-03T17:04:50;6.30;99.40
40123;DHT22;25832;45.490;4.912;2023-03-03T17:07:51;6.30;99.20
40123;DHT22;25832;45.490;4.912;2023-03-03T17:10:24;6.30;98.90
40123;DHT22;25832;45.490;4.912;2023-03-03T17:13:04;6.30;99.50
40123;DHT22;25832;45.490;4.912;2023-03-03T17:20:50;6.20;99.20
40123;DHT22;25832;45.490;4.912;2023-03-03T17:31:12;6.20;99.70
40123;DHT22;25832;45.490;4.912;2023-03-03T17:37:23;6.10;99.70
40123;DHT22;25832;45.490;4.912;2023-03-03T17:39:53;6.10;99.90
40123;DHT22;25832;45.490;4.912;2023-03-03T18:00:55;6.10;99.90
40123;DHT22;25832;45.490;4.912;2023-03-03T18:03:44;6.10;99.90
40123;DHT22;25832;45.490;4.912;2023-03-03T18:20:27;6.10;99.90
40123;DHT22;25832;45.490;4.912;2023-03-03T18:22:55;6.10;99.80
40123;DHT22;25832;45.490;4.912;2023-03-03T18:26:27;6.10;99.90
40123;DHT22;25832;45.490;4.912;2023-03-03T18:28:20;6.10;99.90
40123;DHT22;25832;45.490;4.912;2023-03-03T18:30:58;6.10;99.90
40123;DHT22;25832;45.490;4.912;2023-03-03T18:38:53;5.90;99.90
40123;DHT22;25832;45.490;4.912;2023-03-03T18:41:24;5.90;99.90
40123;DHT22;25832;45.490;4.912;2023-03-03T18:43:57;5.80;99.90
40123;DHT22;25832;45.490;4.912;2023-03-03T18:48:50;5.70;99.90
40123;DHT22;25832;45.490;4.912;2023-03-03T19:02:34;5.40;99.90
40123;DHT22;25832;45.490;4.912;2023-03-03T19:05:45;5.30;99.90
40123;DHT22;25832;45.490;4.912;2023-03-03T19:08:56;5.20;99.90
40123;DHT22;25832;45.490;4.912;2023-03-03T19:11:36;5.10;99.90
40123;DHT22;25832;45.490;4.912;2023-03-03T19:14:30;5.00;99.90
40123;DHT22;25832;45.490;4.912;2023-03-03T19:22:28;4.90;99.90
40123;DHT22;25832;45.490;4.912;2023-03-03T19:36:06;4.70;99.90
40123;DHT22;25832;45.490;4.912;2023-03-03T19:38:55;4.70;99.90
40123;DHT22;25832;45.490;4.912;2023-03-03T19:50:17;4.60;99.90
40123;DHT22;25832;45.490;4.912;2023-03-03T19:59:19;4.70;99.90
40123;DHT22;25832;45.490;4.912;2023-03-03T20:15:39;4.80;99.90
40123;DHT22;25832;45.490;4.912;2023-03-03T20:21:32;4.60;99.90
40123;DHT22;25832;45.490;4.912;2023-03-03T20:27:02;4.40;99.90
40123;DHT22;25832;45.490;4.912;2023-03-03T20:40:14;4.20;99.90
40123;DHT22;25832;45.490;4.912;2023-03-03T20:51:20;4.30;99.90
40123;DHT22;25832;45.490;4.912;2023-03-03T20:54:06;4.30;99.90
40123;DHT22;25832;45.490;4.912;2023-03-03T21:02:06;4.40;99.90
40123;DHT22;25832;45.490;4.912;2023-03-03T21:04:35;4.40;99.90
40123;DHT22;25832;45.490;4.912;2023-03-03T21:07:02;4.40;99.90
40123;DHT22;25832;45.490;4.912;2023-03-03T21:11:56;4.40;99.90
40123;DHT22;25832;45.490;4.912;2023-03-03T21:14:25;4.50;99.90
40123;DHT22;25832;45.490;4.912;2023-03-03T21:16:53;4.50;99.90
40123;DHT22;25832;45.490;4.912;2023-03-03T21:19:27;4.50;99.90
40123;DHT22;25832;45.490;4.912;2023-03-03T21:21:54;4.50;99.90
40123;DHT22;25832;45.490;4.912;2023-03-03T21:24:20;4.50;99.90
40123;DHT22;25832;45.490;4.912;2023-03-03T21:26:53;4.60;99.90
40123;DHT22;25832;45.490;4.912;2023-03-03T21:31:51;4.60;99.90
40123;DHT22;25832;45.490;4.912;2023-03-03T21:34:35;4.60;99.90
40123;DHT22;25832;45.490;4.912;2023-03-03T21:37:05;4.60;99.90
40123;DHT22;25832;45.490;4.912;2023-03-03T21:39:33;4.60;99.90
40123;DHT22;25832;45.490;4.912;2023-03-03T21:42:07;4.60;99.90
40123;DHT22;25832;45.490;4.912;2023-03-03T21:44:44;4.60;99.90
40123;DHT22;25832;45.490;4.912;2023-03-03T21:47:27;4.60;99.90
40123;DHT22;25832;45.490;4.912;2023-03-03T21:49:52;4.60;99.90
40123;DHT22;25832;45.490;4.912;2023-03-03T21:52:20;4.60;99.90
40123;DHT22;25832;45.490;4.912;2023-03-03T21:54:48;4.60;99.90
40123;DHT22;25832;45.490;4.912;2023-03-03T21:57:14;4.60;99.90
40123;DHT22;25832;45.490;4.912;2023-03-03T21:59:40;4.60;99.90
40123;DHT22;25832;45.490;4.912;2023-03-03T22:02:06;4.50;99.90
40123;DHT22;25832;45.490;4.912;2023-03-03T22:04:32;4.50;99.90
40123;DHT22;25832;45.490;4.912;2023-03-03T22:06:58;4.50;99.90
40123;DHT22;25832;45.490;4.912;2023-03-03T22:09:24;4.50;99.90
40123;DHT22;25832;45.490;4.912;2023-03-03T22:11:50;4.50;99.90
40123;DHT22;25832;45.490;4.912;2023-03-03T22:14:15;4.50;99.90
40123;DHT22;25832;45.490;4.912;2023-03-03T22:16:41;4.50;99.90
40123;DHT22;25832;45.490;4.912;2023-03-03T22:19:07;4.50;99.90
40123;DHT22;25832;45.490;4.912;2023-03-03T22:21:35;4.50;99.90
40123;DHT22;25832;45.490;4.912;2023-03-03T22:24:01;4.50;99.90
40123;DHT22;25832;45.490;4.912;2023-03-03T22:26:27;4.50;99.90
40123;DHT22;25832;45.490;4.912;2023-03-03T22:28:53;4.50;99.90
40123;DHT22;25832;45.490;4.912;2023-03-03T22:31:19;4.50;99.90
40123;DHT22;25832;45.490;4.912;2023-03-03T22:33:46;4.50;99.90
40123;DHT22;25832;45.490;4.912;2023-03-03T22:36:12;4.50;99.90
40123;DHT22;25832;45.490;4.912;2023-03-03T22:38:37;4.50;99.90
40123;DHT22;25832;45.490;4.912;2023-03-03T22:41:03;4.40;99.90
40123;DHT22;25832;45.490;4.912;2023-03-03T22:43:29;4.40;99.90